Time;durP1;ratioP1;P1;durP2;ratioP2;P2;SDS_P1;SDS_P2;PMS_P1;PMS_P2;Temp;Humidity;BMP_temperature;BMP_pressure;BME280_temperature;BME280_humidity;BME280_pressure;Samples;Min_cycle;Max_cycle;Signal;HPM_P1;HPM_P2
2023/09/21 00:00:57;;;;;;;;;;;21.00;62.90;;;;;;5041003;28;88062;-48
2023/09/21 00:03:24;;;;;;;;;;;21.00;62.90;;;;;;5043690;27;86699;-51
2023/09/21 00:05:51;;;;;;;;;;;21.00;62.90;;;;;;5042294;27;89412;-47
2023/09/21 00:08:16;;;;;;;;;;;21.00;62.90;;;;;;5041658;28;87117;-49
2023/09/21 00:10:42;;;;;;;;;;;20.90;62.90;;;;;;5042300;28;88042;-48
2023/09/21 00:13:08;;;;;;;;;;;20.90;62.90;;;;;;5041393;27;89632;-47
2023/09/21 00:15:34;;;;;;;;;;;20.90;62.90;;;;;;5042290;28;87195;-53
2023/09/21 00:18:00;;;;;;;;;;;20.90;62.90;;;;;;5042746;27;89183;-48
2023/09/21 00:20:29;;;;;;;;;;;20.90;62.80;;;;;;5042360;27;89329;-52
2023/09/21 00:22:55;;;;;;;;;;;20.90;62.90;;;;;;5045520;27;87183;-54
2023/09/21 00:25:23;;;;;;;;;;;20.90;62.80;;;;;;5042126;28;89836;-49
2023/09/21 00:27:48;;;;;;;;;;;20.90;62.80;;;;;;5042422;27;86414;-51
2023/09/21 00:30:14;;;;;;;;;;;20.90;62.80;;;;;;5042566;28;87185;-50
2023/09/21 00:32:40;;;;;;;;;;;20.90;62.80;;;;;;5042147;27;89325;-52
2023/09/21 00:35:09;;;;;;;;;;;20.90;62.90;;;;;;5041661;27;88062;-52
2023/09/21 00:37:35;;;;;;;;;;;20.90;63.00;;;;;;5042370;28;89699;-51
2023/09/21 00:40:00;;;;;;;;;;;20.90;62.90;;;;;;5042285;27;88180;-45
2023/09/21 00:42:26;;;;;;;;;;;20.90;62.90;;;;;;5044646;28;87181;-54
2023/09/21 00:44:51;;;;;;;;;;;20.90;62.90;;;;;;5042182;28;88021;-55
2023/09/21 00:47:17;;;;;;;;;;;20.90;62.80;;;;;;5042301;27;87106;-55
2023/09/21 00:49:42;;;;;;;;;;;20.80;62.90;;;;;;5042458;28;87870;-50
2023/09/21 00:52:11;;;;;;;;;;;20.80;62.80;;;;;;5042711;28;87344;-49
2023/09/21 00:54:40;;;;;;;;;;;20.80;62.80;;;;;;5042033;27;87016;-50
2023/09/21 00:57:06;;;;;;;;;;;20.80;62.90;;;;;;5044036;27;87744;-49
2023/09/21 00:59:37;;;;;;;;;;;20.80;62.90;;;;;;5037357;28;89088;-51
2023/09/21 01:02:04;;;;;;;;;;;20.80;62.90;;;;;;5041523;27;87096;-55
2023/09/21 01:04:29;;;;;;;;;;;20.80;62.90;;;;;;5044748;28;88456;-55
2023/09/21 01:06:55;;;;;;;;;;;20.80;62.90;;;;;;5042299;28;87006;-52
2023/09/21 01:09:21;;;;;;;;;;;20.70;62.90;;;;;;5042163;28;87610;-53
2023/09/21 01:11:46;;;;;;;;;;;20.70;62.90;;;;;;5041033;27;89927;-53
2023/09/21 01:14:12;;;;;;;;;;;20.70;63.00;;;;;;5041509;28;86975;-51
2023/09/21 01:16:37;;;;;;;;;;;20.70;62.90;;;;;;5042905;28;87806;-52
2023/09/21 01:19:03;;;;;;;;;;;20.70;62.90;;;;;;5041517;28;88781;-52
2023/09/21 01:21:34;;;;;;;;;;;20.70;63.10;;;;;;5042321;28;87109;-52
2023/09/21 01:24:00;;;;;;;;;;;20.70;63.00;;;;;;5041195;27;88783;-52
2023/09/21 01:26:26;;;;;;;;;;;20.70;63.10;;;;;;5045473;27;89308;-52
2023/09/21 01:28:52;;;;;;;;;;;20.70;63.10;;;;;;5045198;27;87123;-51
2023/09/21 01:31:18;;;;;;;;;;;20.70;63.10;;;;;;5045277;27;88147;-50
2023/09/21 01:33:45;;;;;;;;;;;20.60;63.00;;;;;;5044020;28;87176;-54
2023/09/21 01:36:12;;;;;;;;;;;20.60;63.00;;;;;;5045492;27;87937;-52
2023/09/21 01:38:46;;;;;;;;;;;20.60;63.00;;;;;;5044830;27;89661;-50
2023/09/21 01:41:13;;;;;;;;;;;20.60;63.10;;;;;;5042479;28;86387;-55
2023/09/21 01:43:39;;;;;;;;;;;20.60;63.10;;;;;;5044553;27;87348;-54
2023/09/21 01:46:05;;;;;;;;;;;20.60;63.10;;;;;;5045031;28;88574;-51
2023/09/21 01:48:32;;;;;;;;;;;20.60;63.10;;;;;;5047663;27;88339;-50
2023/09/21 01:50:59;;;;;;;;;;;20.50;63.20;;;;;;5044973;27;88535;-51
2023/09/21 01:53:24;;;;;;;;;;;20.50;63.20;;;;;;5040919;28;87729;-49
2023/09/21 01:55:50;;;;;;;;;;;20.50;63.20;;;;;;5044940;28;88808;-48
2023/09/21 01:58:17;;;;;;;;;;;20.50;63.20;;;;;;5043777;27;89710;-52
2023/09/21 02:00:46;;;;;;;;;;;20.50;63.30;;;;;;5045101;27;87096;-52
2023/09/21 02:03:13;;;;;;;;;;;20.40;63.30;;;;;;5044610;27;89177;-51
2023/09/21 02:05:39;;;;;;;;;;;20.40;63.30;;;;;;5044809;27;88486;-54
2023/09/21 02:08:05;;;;;;;;;;;20.40;63.30;;;;;;5045122;27;87133;-51
2023/09/21 02:10:32;;;;;;;;;;;20.40;63.30;;;;;;5047464;28;87396;-48
2023/09/21 02:12:59;;;;;;;;;;;20.40;64.00;;;;;;5043253;27;88186;-49
2023/09/21 02:15:25;;;;;;;;;;;20.40;63.30;;;;;;5043657;27;90358;-53
2023/09/21 02:17:51;;;;;;;;;;;20.40;63.30;;;;;;5044454;27;88376;-52
2023/09/21 02:20:17;;;;;;;;;;;20.40;63.40;;;;;;5044586;27;87189;-47
2023/09/21 02:22:47;;;;;;;;;;;20.40;63.40;;;;;;5041903;28;88865;-52
2023/09/21 02:25:13;;;;;;;;;;;20.40;63.40;;;;;;5043141;27;88546;-51
2023/09/21 02:27:40;;;;;;;;;;;20.40;63.50;;;;;;5043919;27;87150;-51
2023/09/21 02:30:06;;;;;;;;;;;20.30;63.40;;;;;;5047103;27;87537;-53
2023/09/21 02:32:33;;;;;;;;;;;20.30;63.00;;;;;;5043124;28;87254;-52
2023/09/21 02:34:59;;;;;;;;;;;20.30;63.50;;;;;;5040827;28;87705;-54
2023/09/21 02:37:25;;;;;;;;;;;20.30;63.50;;;;;;5041882;27;90422;-56
2023/09/21 02:39:51;;;;;;;;;;;20.30;63.50;;;;;;5043089;28;87545;-49
2023/09/21 02:42:16;;;;;;;;;;;20.30;63.60;;;;;;5043319;27;87401;-50
2023/09/21 02:44:44;;;;;;;;;;;20.20;63.60;;;;;;5043465;28;88262;-54
2023/09/21 02:47:09;;;;;;;;;;;20.20;63.50;;;;;;5043293;27;87292;-54
2023/09/21 02:49:35;;;;;;;;;;;20.30;63.60;;;;;;5044661;28;88004;-52
2023/09/21 02:52:01;;;;;;;;;;;20.30;63.50;;;;;;5044871;28;88096;-49
2023/09/21 02:54:27;;;;;;;;;;;20.20;63.50;;;;;;5044200;27;88941;-52
2023/09/21 02:56:53;;;;;;;;;;;20.20;63.40;;;;;;5042161;27;87957;-49
2023/09/21 02:59:19;;;;;;;;;;;20.20;63.50;;;;;;5043887;27;87493;-44
2023/09/21 03:01:45;;;;;;;;;;;20.20;63.70;;;;;;5042141;27;88010;-50
2023/09/21 03:04:12;;;;;;;;;;;20.20;63.50;;;;;;5042621;28;88636;-50
2023/09/21 03:06:37;;;;;;;;;;;20.20;63.60;;;;;;5039901;28;87065;-52
2023/09/21 03:09:05;;;;;;;;;;;20.20;63.70;;;;;;5043195;27;87562;-52
2023/09/21 03:11:30;;;;;;;;;;;20.20;63.70;;;;;;5043405;27;88844;-57
2023/09/21 03:13:56;;;;;;;;;;;20.20;63.70;;;;;;5044995;28;87740;-54
2023/09/21 03:16:21;;;;;;;;;;;20.20;63.70;;;;;;5043492;27;89425;-55
2023/09/21 03:18:47;;;;;;;;;;;20.10;63.60;;;;;;5043546;27;86243;-50
2023/09/21 03:21:15;;;;;;;;;;;20.10;63.50;;;;;;5043842;28;87530;-52
2023/09/21 03:23:41;;;;;;;;;;;20.20;63.50;;;;;;5040847;27;89456;-57
2023/09/21 03:26:10;;;;;;;;;;;20.10;63.50;;;;;;5043394;27;88032;-50
2023/09/21 03:28:37;;;;;;;;;;;20.10;63.60;;;;;;5043201;28;89757;-53
2023/09/21 03:31:02;;;;;;;;;;;20.10;63.70;;;;;;5041938;27;89264;-51
2023/09/21 03:33:28;;;;;;;;;;;20.10;63.60;;;;;;5043356;28;87191;-49
2023/09/21 03:35:54;;;;;;;;;;;20.10;63.70;;;;;;5045774;28;87043;-51
2023/09/21 03:38:19;;;;;;;;;;;20.10;63.70;;;;;;5043445;27;87088;-47
2023/09/21 03:40:45;;;;;;;;;;;20.00;63.70;;;;;;5042292;27;87054;-47
2023/09/21 03:43:12;;;;;;;;;;;20.10;63.70;;;;;;5042925;27;87438;-54
2023/09/21 03:45:38;;;;;;;;;;;20.00;63.70;;;;;;5042072;28;87091;-51
2023/09/21 03:48:06;;;;;;;;;;;20.00;63.70;;;;;;5042787;27;88973;-49
2023/09/21 03:50:32;;;;;;;;;;;20.00;63.70;;;;;;5041597;28;89183;-56
2023/09/21 03:52:59;;;;;;;;;;;20.00;63.60;;;;;;5041760;28;87042;-51
2023/09/21 03:55:24;;;;;;;;;;;20.00;63.60;;;;;;5042398;27;87663;-54
2023/09/21 03:57:50;;;;;;;;;;;20.00;63.70;;;;;;5045888;28;88405;-51
2023/09/21 04:02:54;;;;;;;;;;;20.00;63.70;;;;;;5037753;28;88060;-52
2023/09/21 04:05:23;;;;;;;;;;;20.00;63.70;;;;;;5043122;27;87018;-52
2023/09/21 04:07:49;;;;;;;;;;;20.00;63.60;;;;;;5042143;27;88252;-47
2023/09/21 04:10:15;;;;;;;;;;;19.90;63.70;;;;;;5042749;27;88283;-49
2023/09/21 04:12:44;;;;;;;;;;;19.90;63.70;;;;;;5041561;28;87036;-49
2023/09/21 04:15:11;;;;;;;;;;;19.90;63.10;;;;;;5038324;28;89233;-50
2023/09/21 04:17:37;;;;;;;;;;;19.90;63.70;;;;;;5040081;27;89932;-53
2023/09/21 04:20:11;;;;;;;;;;;19.90;63.70;;;;;;5041234;28;87309;-52
2023/09/21 04:22:37;;;;;;;;;;;19.90;63.80;;;;;;5042212;28;89689;-54
2023/09/21 04:25:07;;;;;;;;;;;19.90;63.80;;;;;;5042684;28;87180;-51
2023/09/21 04:27:38;;;;;;;;;;;19.90;63.70;;;;;;5042612;27;90174;-47
2023/09/21 04:30:06;;;;;;;;;;;19.90;63.70;;;;;;5042206;27;88551;-49
2023/09/21 04:32:32;;;;;;;;;;;19.90;63.70;;;;;;5041181;27;86496;-53
2023/09/21 04:34:58;;;;;;;;;;;19.90;63.80;;;;;;5040334;28;87167;-46
2023/09/21 04:37:23;;;;;;;;;;;19.90;63.80;;;;;;5041620;27;89867;-46
2023/09/21 04:39:50;;;;;;;;;;;19.80;63.70;;;;;;5045040;28;88030;-57
2023/09/21 04:42:16;;;;;;;;;;;19.90;63.70;;;;;;5042224;28;88303;-51
2023/09/21 04:44:41;;;;;;;;;;;19.80;63.70;;;;;;5042234;28;87091;-53
2023/09/21 04:47:07;;;;;;;;;;;19.80;63.70;;;;;;5039825;27;90554;-52
2023/09/21 04:49:37;;;;;;;;;;;19.80;63.80;;;;;;5036562;28;88351;-52
2023/09/21 04:52:03;;;;;;;;;;;19.80;63.60;;;;;;5038048;28;87049;-52
2023/09/21 04:54:28;;;;;;;;;;;19.80;63.70;;;;;;5042517;27;87490;-46
2023/09/21 04:56:54;;;;;;;;;;;19.80;63.70;;;;;;5040851;28;87394;-48
2023/09/21 04:59:20;;;;;;;;;;;19.80;63.80;;;;;;5041846;28;87121;-51
2023/09/21 05:01:49;;;;;;;;;;;19.80;63.80;;;;;;5042533;27;88994;-53
2023/09/21 05:04:14;;;;;;;;;;;19.80;63.80;;;;;;5039088;27;88176;-55
2023/09/21 05:06:40;;;;;;;;;;;19.80;63.70;;;;;;5040722;27;88330;-55
2023/09/21 05:09:05;;;;;;;;;;;19.80;63.90;;;;;;5041822;27;88196;-48
2023/09/21 05:11:38;;;;;;;;;;;19.70;63.80;;;;;;5039970;27;87261;-50
2023/09/21 05:14:05;;;;;;;;;;;19.70;63.90;;;;;;5038625;27;88933;-53
2023/09/21 05:16:34;;;;;;;;;;;19.80;63.90;;;;;;5040999;28;89515;-50
2023/09/21 05:19:00;;;;;;;;;;;19.70;63.80;;;;;;5039841;28;87147;-47
2023/09/21 05:21:26;;;;;;;;;;;19.70;63.80;;;;;;5039697;27;87834;-52
2023/09/21 05:23:51;;;;;;;;;;;19.70;63.80;;;;;;5038738;27;88262;-49
2023/09/21 05:26:17;;;;;;;;;;;19.70;63.90;;;;;;5041274;27;87522;-52
2023/09/21 05:28:44;;;;;;;;;;;19.70;63.90;;;;;;5039150;27;89367;-55
2023/09/21 05:31:09;;;;;;;;;;;19.70;63.40;;;;;;5039445;27;87379;-55
2023/09/21 05:33:35;;;;;;;;;;;19.70;63.80;;;;;;5038370;28;87942;-49
2023/09/21 05:36:04;;;;;;;;;;;19.70;63.30;;;;;;5040936;28;88328;-48
2023/09/21 05:38:33;;;;;;;;;;;19.70;63.80;;;;;;5039292;27;87147;-52
2023/09/21 05:41:06;;;;;;;;;;;19.70;64.00;;;;;;5044482;27;88899;-48
2023/09/21 05:43:31;;;;;;;;;;;19.70;64.00;;;;;;5039254;28;88343;-44
2023/09/21 05:45:57;;;;;;;;;;;19.70;64.00;;;;;;5043668;27;86457;-47
2023/09/21 05:48:23;;;;;;;;;;;19.70;64.00;;;;;;5041462;27;87179;-47
2023/09/21 05:50:49;;;;;;;;;;;19.70;64.00;;;;;;5038773;28;87490;-54
2023/09/21 05:53:15;;;;;;;;;;;19.60;63.90;;;;;;5039257;27;88601;-51
2023/09/21 05:55:43;;;;;;;;;;;19.60;64.00;;;;;;5040478;27;89963;-52
2023/09/21 05:58:09;;;;;;;;;;;19.60;64.00;;;;;;5034958;27;89043;-55
2023/09/21 06:00:35;;;;;;;;;;;19.70;64.00;;;;;;5043165;27;87585;-52
2023/09/21 06:03:00;;;;;;;;;;;19.60;64.00;;;;;;5041543;27;88237;-54
2023/09/21 06:05:26;;;;;;;;;;;19.60;64.00;;;;;;5041443;27;87220;-52
2023/09/21 06:07:53;;;;;;;;;;;19.60;64.00;;;;;;5042104;27;87197;-52
2023/09/21 06:10:18;;;;;;;;;;;19.60;64.00;;;;;;5036780;27;86486;-51
2023/09/21 06:12:44;;;;;;;;;;;19.60;64.00;;;;;;5042039;27;87414;-55
2023/09/21 06:15:10;;;;;;;;;;;19.60;64.10;;;;;;5042512;27;89281;-52
2023/09/21 06:17:35;;;;;;;;;;;19.60;64.00;;;;;;5042261;27;88082;-51
2023/09/21 06:20:01;;;;;;;;;;;19.60;64.10;;;;;;5042065;27;88685;-50
2023/09/21 06:22:28;;;;;;;;;;;19.60;64.10;;;;;;5043595;27;88406;-51
2023/09/21 06:24:53;;;;;;;;;;;19.60;64.10;;;;;;5045339;27;89120;-55
2023/09/21 06:27:19;;;;;;;;;;;19.60;64.10;;;;;;5042532;27;88732;-48
2023/09/21 06:29:45;;;;;;;;;;;19.60;64.10;;;;;;5045028;27;89632;-53
2023/09/21 06:32:11;;;;;;;;;;;19.60;64.10;;;;;;5044607;28;87472;-50
2023/09/21 06:34:37;;;;;;;;;;;19.60;64.20;;;;;;5043064;27;87847;-44
2023/09/21 06:37:02;;;;;;;;;;;19.60;64.20;;;;;;5042019;28;87260;-56
2023/09/21 06:39:28;;;;;;;;;;;19.60;64.00;;;;;;5043721;27;89315;-49
2023/09/21 06:41:54;;;;;;;;;;;19.60;64.10;;;;;;5043547;28;89260;-53
2023/09/21 06:44:19;;;;;;;;;;;19.60;64.10;;;;;;5042325;27;87165;-52
2023/09/21 06:46:45;;;;;;;;;;;19.60;64.10;;;;;;5041815;27;87819;-50
2023/09/21 06:49:11;;;;;;;;;;;19.60;64.00;;;;;;5046810;28;88025;-53
2023/09/21 06:51:37;;;;;;;;;;;19.60;64.00;;;;;;5042264;27;90679;-52
2023/09/21 06:54:03;;;;;;;;;;;19.60;64.00;;;;;;5045947;27;88565;-47
2023/09/21 06:56:31;;;;;;;;;;;19.60;64.10;;;;;;5043676;27;87101;-53
2023/09/21 06:58:57;;;;;;;;;;;19.60;64.20;;;;;;5044216;27;89233;-56
2023/09/21 07:01:22;;;;;;;;;;;19.60;64.20;;;;;;5041545;27;88298;-53
2023/09/21 07:03:49;;;;;;;;;;;19.60;64.10;;;;;;5045386;27;87174;-52
2023/09/21 07:06:19;;;;;;;;;;;19.60;64.10;;;;;;5039750;27;87959;-53
2023/09/21 07:08:47;;;;;;;;;;;19.60;64.00;;;;;;5042829;28;88271;-51
2023/09/21 07:11:14;;;;;;;;;;;19.60;63.90;;;;;;5044715;27;88887;-55
2023/09/21 07:13:42;;;;;;;;;;;19.60;64.10;;;;;;5037660;27;87916;-49
2023/09/21 07:16:08;;;;;;;;;;;19.60;64.00;;;;;;5043031;27;87116;-54
2023/09/21 07:18:34;;;;;;;;;;;19.60;64.10;;;;;;5043055;28;87533;-54
2023/09/21 07:20:59;;;;;;;;;;;19.60;64.20;;;;;;5041501;27;88420;-48
2023/09/21 07:23:25;;;;;;;;;;;19.60;64.20;;;;;;5039570;27;86743;-46
2023/09/21 07:25:53;;;;;;;;;;;19.60;64.10;;;;;;5043801;28;87020;-52
2023/09/21 07:28:19;;;;;;;;;;;19.60;64.10;;;;;;5042623;27;88741;-52
2023/09/21 07:30:44;;;;;;;;;;;19.60;64.20;;;;;;5037094;27;88943;-48
2023/09/21 07:33:10;;;;;;;;;;;19.60;64.30;;;;;;5042025;28;89774;-55
2023/09/21 07:35:36;;;;;;;;;;;19.60;64.20;;;;;;5043743;28;87156;-54
2023/09/21 07:38:02;;;;;;;;;;;19.60;64.20;;;;;;5042552;27;87562;-52
2023/09/21 07:40:28;;;;;;;;;;;19.60;64.20;;;;;;5040813;27;89900;-52
2023/09/21 07:42:53;;;;;;;;;;;19.60;64.10;;;;;;5042513;27;87240;-49
2023/09/21 07:45:22;;;;;;;;;;;19.60;64.20;;;;;;5042969;28;88484;-52
2023/09/21 07:47:49;;;;;;;;;;;19.60;64.10;;;;;;5041414;27;88914;-51
2023/09/21 07:50:17;;;;;;;;;;;19.60;64.10;;;;;;5040843;27;87128;-53
2023/09/21 07:52:45;;;;;;;;;;;19.60;64.20;;;;;;5041308;28;87596;-53
2023/09/21 07:55:11;;;;;;;;;;;19.60;64.20;;;;;;5045270;27;89052;-49
2023/09/21 07:57:37;;;;;;;;;;;19.60;64.20;;;;;;5043242;27;88664;-52
2023/09/21 08:00:05;;;;;;;;;;;19.60;64.10;;;;;;5037651;27;89805;-50
2023/09/21 08:02:30;;;;;;;;;;;19.60;64.10;;;;;;5041815;27;87242;-54
2023/09/21 08:04:57;;;;;;;;;;;19.60;64.10;;;;;;5041835;27;89259;-52
2023/09/21 08:07:26;;;;;;;;;;;19.60;64.20;;;;;;5044490;27;88077;-54
2023/09/21 08:09:55;;;;;;;;;;;19.60;64.20;;;;;;5038975;28;87048;-50
2023/09/21 08:12:21;;;;;;;;;;;19.60;64.20;;;;;;5039536;28;89564;-56
2023/09/21 08:14:47;;;;;;;;;;;19.60;64.10;;;;;;5040827;27;88745;-54
2023/09/21 08:17:13;;;;;;;;;;;19.60;64.00;;;;;;5042949;27;87407;-56
2023/09/21 08:19:40;;;;;;;;;;;19.60;64.10;;;;;;5039790;28;90456;-50
2023/09/21 08:22:06;;;;;;;;;;;19.60;64.10;;;;;;5042866;27;86997;-52
2023/09/21 08:24:31;;;;;;;;;;;19.60;64.10;;;;;;5040254;27;88005;-54
2023/09/21 08:26:57;;;;;;;;;;;19.60;64.10;;;;;;5040360;27;90006;-46
2023/09/21 08:29:23;;;;;;;;;;;19.60;64.00;;;;;;5042671;28;87130;-53
2023/09/21 08:31:48;;;;;;;;;;;19.60;64.10;;;;;;5041680;28;87794;-52
2023/09/21 08:34:15;;;;;;;;;;;19.60;64.00;;;;;;5040241;27;88555;-50
2023/09/21 08:36:44;;;;;;;;;;;19.60;64.20;;;;;;5040905;27;86396;-56
2023/09/21 08:39:10;;;;;;;;;;;19.60;64.20;;;;;;5045222;27;87027;-47
2023/09/21 08:41:40;;;;;;;;;;;19.60;64.10;;;;;;5037661;27;87772;-53
2023/09/21 08:44:07;;;;;;;;;;;19.60;63.90;;;;;;5041754;27;88211;-49
2023/09/21 08:46:32;;;;;;;;;;;19.60;64.10;;;;;;5037311;27;88546;-52
2023/09/21 08:49:00;;;;;;;;;;;19.60;64.00;;;;;;5042569;27;87210;-49
2023/09/21 08:51:25;;;;;;;;;;;19.60;64.10;;;;;;5041258;27;87649;-57
2023/09/21 08:53:52;;;;;;;;;;;19.60;64.20;;;;;;5039159;27;87945;-50
2023/09/21 08:56:20;;;;;;;;;;;19.60;64.10;;;;;;5042363;27;87135;-55
2023/09/21 08:58:47;;;;;;;;;;;19.60;64.20;;;;;;5044752;28;87899;-54
2023/09/21 09:01:13;;;;;;;;;;;19.60;64.20;;;;;;5046739;27;86264;-50
2023/09/21 09:03:39;;;;;;;;;;;19.60;64.00;;;;;;5037880;27;87215;-49
2023/09/21 09:06:05;;;;;;;;;;;19.60;64.30;;;;;;5041675;28;90107;-51
2023/09/21 09:08:30;;;;;;;;;;;19.60;64.10;;;;;;5041015;27;88178;-54
2023/09/21 09:10:56;;;;;;;;;;;19.60;64.10;;;;;;5039522;27;87734;-52
2023/09/21 09:13:34;;;;;;;;;;;19.60;64.20;;;;;;5038889;27;88379;-54
2023/09/21 09:16:00;;;;;;;;;;;19.60;64.20;;;;;;5041428;27;87163;-55
2023/09/21 09:18:26;;;;;;;;;;;19.60;64.30;;;;;;5040387;27;89180;-53
2023/09/21 09:20:53;;;;;;;;;;;19.70;64.50;;;;;;5042577;27;89414;-51
2023/09/21 09:23:19;;;;;;;;;;;19.70;64.40;;;;;;5037773;27;87705;-48
2023/09/21 09:25:45;;;;;;;;;;;19.70;64.50;;;;;;5042389;28;86910;-49
2023/09/21 09:28:11;;;;;;;;;;;19.70;64.00;;;;;;5039758;27;87160;-52
2023/09/21 09:30:36;;;;;;;;;;;19.70;64.60;;;;;;5039526;27;89119;-52
2023/09/21 09:33:09;;;;;;;;;;;19.70;64.50;;;;;;5040619;27;89640;-52
2023/09/21 09:35:37;;;;;;;;;;;19.70;64.40;;;;;;5038358;28;87164;-54
2023/09/21 09:38:08;;;;;;;;;;;19.70;64.40;;;;;;5038973;27;87730;-46
2023/09/21 09:40:37;;;;;;;;;;;19.70;64.60;;;;;;5036830;27;89608;-53
2023/09/21 09:43:03;;;;;;;;;;;19.70;64.50;;;;;;5040887;28;87123;-50
2023/09/21 09:45:30;;;;;;;;;;;19.70;64.40;;;;;;5040198;28;87914;-52
2023/09/21 09:47:57;;;;;;;;;;;19.80;64.30;;;;;;5043615;27;87261;-52
2023/09/21 09:50:26;;;;;;;;;;;19.80;64.40;;;;;;5041300;27;88097;-50
2023/09/21 09:53:05;;;;;;;;;;;19.70;64.40;;;;;;5044734;28;88070;-47
2023/09/21 09:55:32;;;;;;;;;;;19.80;64.60;;;;;;5041357;27;87168;-53
2023/09/21 09:57:59;;;;;;;;;;;19.80;64.50;;;;;;5040592;27;88928;-50
2023/09/21 10:00:27;;;;;;;;;;;19.80;64.40;;;;;;5043784;28;89258;-50
2023/09/21 10:02:59;;;;;;;;;;;19.80;64.40;;;;;;5040043;28;87405;-53
2023/09/21 10:05:26;;;;;;;;;;;19.80;64.50;;;;;;5043522;27;88790;-48
2023/09/21 10:07:53;;;;;;;;;;;19.80;64.50;;;;;;5037979;27;87205;-53
2023/09/21 10:10:20;;;;;;;;;;;19.80;64.50;;;;;;5044665;27;87499;-52
2023/09/21 10:12:52;;;;;;;;;;;19.80;64.40;;;;;;5043376;27;89590;-52
2023/09/21 10:15:18;;;;;;;;;;;19.90;64.40;;;;;;5042869;27;86488;-47
2023/09/21 10:17:43;;;;;;;;;;;19.90;64.50;;;;;;5042587;27;87371;-56
2023/09/21 10:20:15;;;;;;;;;;;19.80;64.60;;;;;;5044518;28;88654;-51
2023/09/21 10:22:43;;;;;;;;;;;19.90;68.30;;;;;;5041575;27;88576;-48
2023/09/21 10:25:10;;;;;;;;;;;20.10;70.30;;;;;;5045331;27;89653;-51
2023/09/21 10:27:38;;;;;;;;;;;20.20;70.80;;;;;;5044830;27;89132;-52
2023/09/21 10:30:06;;;;;;;;;;;20.40;71.30;;;;;;5044322;27;87674;-48
2023/09/21 10:32:44;;;;;;;;;;;20.50;71.70;;;;;;5041748;27;89220;-51
2023/09/21 10:35:20;;;;;;;;;;;20.50;70.70;;;;;;5040182;27;87513;-50
2023/09/21 10:37:49;;;;;;;;;;;20.60;71.30;;;;;;5043631;28;88203;-48
2023/09/21 10:40:20;;;;;;;;;;;20.70;71.00;;;;;;5040710;27;87684;-51
2023/09/21 10:42:45;;;;;;;;;;;20.70;71.50;;;;;;5045695;27;87084;-51
2023/09/21 10:45:11;;;;;;;;;;;20.70;71.10;;;;;;5042019;27;88135;-51
2023/09/21 10:47:43;;;;;;;;;;;20.70;71.70;;;;;;5042837;27;89288;-49
2023/09/21 10:50:12;;;;;;;;;;;20.80;71.50;;;;;;5042499;27;87640;-51
2023/09/21 10:52:39;;;;;;;;;;;20.80;70.70;;;;;;5041761;27;88025;-49
2023/09/21 10:55:05;;;;;;;;;;;20.80;71.70;;;;;;5040043;27;87190;-49
2023/09/21 10:57:31;;;;;;;;;;;20.80;70.50;;;;;;5043362;27;89666;-48
2023/09/21 10:59:59;;;;;;;;;;;20.80;72.20;;;;;;5042290;27;88155;-45
2023/09/21 11:02:26;;;;;;;;;;;20.80;71.10;;;;;;5039758;27;87155;-47
2023/09/21 11:04:52;;;;;;;;;;;20.80;71.60;;;;;;5043387;27;89053;-48
2023/09/21 11:07:18;;;;;;;;;;;20.80;70.60;;;;;;5043132;27;89500;-48
2023/09/21 11:09:44;;;;;;;;;;;20.90;71.30;;;;;;5044398;27;87143;-48
2023/09/21 11:12:13;;;;;;;;;;;21.00;69.30;;;;;;5039236;27;89159;-52
2023/09/21 11:14:43;;;;;;;;;;;21.10;69.50;;;;;;5043317;28;87207;-48
2023/09/21 11:17:12;;;;;;;;;;;21.10;68.80;;;;;;5042577;27;89075;-49
2023/09/21 11:19:38;;;;;;;;;;;21.20;69.00;;;;;;5041069;27;88551;-51
2023/09/21 11:22:05;;;;;;;;;;;21.10;69.50;;;;;;5040348;27;88672;-52
2023/09/21 11:24:32;;;;;;;;;;;21.10;69.30;;;;;;5043179;27;88606;-44
2023/09/21 11:26:58;;;;;;;;;;;21.10;69.40;;;;;;5041885;27;87398;-49
2023/09/21 11:29:26;;;;;;;;;;;21.20;70.10;;;;;;5045052;27;86568;-47
2023/09/21 11:31:52;;;;;;;;;;;21.20;70.60;;;;;;5042507;27;88105;-50
2023/09/21 11:34:18;;;;;;;;;;;21.20;69.70;;;;;;5042959;27;87128;-47
2023/09/21 11:36:44;;;;;;;;;;;21.30;69.70;;;;;;5039023;27;90925;-49
2023/09/21 11:39:11;;;;;;;;;;;21.30;69.80;;;;;;5041117;27;88458;-50
2023/09/21 11:41:39;;;;;;;;;;;21.30;69.90;;;;;;5042515;27;87087;-50
2023/09/21 11:44:06;;;;;;;;;;;21.40;69.70;;;;;;5042214;27;89171;-54
2023/09/21 11:46:32;;;;;;;;;;;21.60;67.50;;;;;;5042930;27;88914;-55
2023/09/21 11:48:58;;;;;;;;;;;21.50;67.40;;;;;;5039201;28;87417;-54
2023/09/21 11:51:28;;;;;;;;;;;21.50;66.70;;;;;;5041879;28;90666;-55
2023/09/21 11:53:57;;;;;;;;;;;21.50;67.20;;;;;;5045074;27;88742;-54
2023/09/21 11:56:23;;;;;;;;;;;21.60;67.30;;;;;;5043533;27;88127;-56
2023/09/21 11:58:49;;;;;;;;;;;21.60;66.50;;;;;;5040279;27;89224;-52
2023/09/21 12:01:22;;;;;;;;;;;21.60;67.40;;;;;;5042409;28;88102;-52
2023/09/21 12:03:51;;;;;;;;;;;21.60;67.40;;;;;;5040558;27;88546;-53
2023/09/21 12:06:17;;;;;;;;;;;21.60;65.80;;;;;;5040790;27;88783;-47
2023/09/21 12:08:43;;;;;;;;;;;21.60;65.00;;;;;;5042354;27;87271;-52
2023/09/21 12:11:09;;;;;;;;;;;21.60;63.70;;;;;;5040226;27;89130;-55
2023/09/21 12:13:35;;;;;;;;;;;21.60;63.60;;;;;;5040351;27;88150;-56
2023/09/21 12:16:03;;;;;;;;;;;21.60;63.10;;;;;;5041265;27;88757;-53
2023/09/21 12:18:29;;;;;;;;;;;21.70;64.50;;;;;;5038930;27;88573;-55
2023/09/21 12:20:57;;;;;;;;;;;21.80;64.50;;;;;;5042401;27;87122;-52
2023/09/21 12:23:23;;;;;;;;;;;21.80;63.80;;;;;;5040254;27;89127;-49
2023/09/21 12:25:49;;;;;;;;;;;21.80;63.00;;;;;;5038186;27;88514;-50
2023/09/21 12:28:14;;;;;;;;;;;21.90;62.10;;;;;;5042723;27;87188;-50
2023/09/21 12:30:42;;;;;;;;;;;21.90;61.80;;;;;;5044354;27;87516;-53
2023/09/21 12:33:08;;;;;;;;;;;21.80;61.80;;;;;;5038173;27;89318;-50
2023/09/21 12:35:35;;;;;;;;;;;21.80;61.80;;;;;;5038707;28;87067;-55
2023/09/21 12:38:00;;;;;;;;;;;21.90;61.80;;;;;;5044937;27;87174;-53
2023/09/21 12:40:26;;;;;;;;;;;22.00;61.80;;;;;;5042137;27;88839;-53
2023/09/21 12:42:52;;;;;;;;;;;22.00;62.00;;;;;;5040274;27;88061;-52
2023/09/21 12:45:18;;;;;;;;;;;22.00;62.60;;;;;;5041997;28;87315;-49
2023/09/21 12:47:44;;;;;;;;;;;21.90;63.60;;;;;;5041530;28;87221;-51
2023/09/21 12:50:10;;;;;;;;;;;22.00;63.90;;;;;;5038223;27;89663;-53
2023/09/21 12:52:36;;;;;;;;;;;22.00;65.20;;;;;;5038298;27;87989;-50
2023/09/21 12:55:05;;;;;;;;;;;22.00;64.70;;;;;;5042749;28;87349;-52
2023/09/21 12:57:34;;;;;;;;;;;22.10;64.00;;;;;;5043697;28;87665;-52
2023/09/21 12:59:59;;;;;;;;;;;22.00;63.50;;;;;;5043048;27;87268;-49
2023/09/21 13:02:25;;;;;;;;;;;22.10;64.40;;;;;;5035787;27;87689;-50
2023/09/21 13:04:55;;;;;;;;;;;22.10;63.90;;;;;;5040745;27;87272;-52
2023/09/21 13:07:24;;;;;;;;;;;22.10;62.10;;;;;;5043628;27;87574;-52
2023/09/21 13:09:52;;;;;;;;;;;22.10;63.50;;;;;;5039599;27;88099;-49
2023/09/21 13:12:18;;;;;;;;;;;22.10;63.70;;;;;;5038799;28;88344;-53
2023/09/21 13:14:43;;;;;;;;;;;22.10;63.80;;;;;;5040887;27;88146;-51
2023/09/21 13:17:10;;;;;;;;;;;22.20;63.60;;;;;;5039453;27;88193;-48
2023/09/21 13:19:36;;;;;;;;;;;22.20;63.20;;;;;;5041224;27;88019;-54
2023/09/21 13:22:02;;;;;;;;;;;22.20;62.60;;;;;;5043773;27;87898;-54
2023/09/21 13:24:28;;;;;;;;;;;22.20;61.90;;;;;;5044118;27;89480;-45
2023/09/21 13:26:53;;;;;;;;;;;22.20;63.20;;;;;;5043214;27;87272;-52
2023/09/21 13:29:19;;;;;;;;;;;22.20;63.30;;;;;;5037891;27;87657;-51
2023/09/21 13:31:44;;;;;;;;;;;22.10;63.80;;;;;;5045436;27;88728;-50
2023/09/21 13:34:10;;;;;;;;;;;22.00;64.00;;;;;;5044280;27;87205;-53
2023/09/21 13:36:36;;;;;;;;;;;21.90;64.10;;;;;;5046163;27;87452;-54
2023/09/21 13:39:01;;;;;;;;;;;21.90;64.10;;;;;;5040312;27;88388;-53
2023/09/21 13:41:27;;;;;;;;;;;21.90;64.20;;;;;;5048257;27;87219;-53
2023/09/21 13:43:52;;;;;;;;;;;21.90;64.20;;;;;;5043673;27;88620;-54
2023/09/21 13:46:18;;;;;;;;;;;22.00;64.10;;;;;;5043525;27;87082;-50
2023/09/21 13:48:43;;;;;;;;;;;22.00;64.20;;;;;;5041027;27;88615;-52
2023/09/21 13:51:09;;;;;;;;;;;22.00;64.10;;;;;;5044730;28;90137;-54
2023/09/21 13:53:35;;;;;;;;;;;22.00;64.10;;;;;;5043058;27;87189;-52
2023/09/21 13:56:00;;;;;;;;;;;22.00;64.10;;;;;;5040997;27;87547;-53
2023/09/21 13:58:26;;;;;;;;;;;22.00;64.10;;;;;;5045011;28;87653;-54
2023/09/21 14:00:52;;;;;;;;;;;22.00;64.00;;;;;;5044281;27;87426;-50
2023/09/21 14:03:18;;;;;;;;;;;22.10;64.20;;;;;;5044651;27;88890;-50
2023/09/21 14:05:44;;;;;;;;;;;22.00;64.20;;;;;;5043636;27;87257;-49
2023/09/21 14:08:11;;;;;;;;;;;22.00;64.10;;;;;;5045229;27;87917;-55
2023/09/21 14:10:37;;;;;;;;;;;22.10;64.20;;;;;;5045246;27;88050;-52
2023/09/21 14:13:03;;;;;;;;;;;22.10;64.10;;;;;;5045810;27;87231;-52
2023/09/21 14:15:29;;;;;;;;;;;22.10;64.10;;;;;;5043757;27;89037;-52